createdAt,value
2018-06-18T00:02:05.368Z,101474.05
2018-06-18T00:04:33.581Z,101474.53
2018-06-18T00:07:01.701Z,101468.03
2018-06-18T00:09:30.180Z,101461.28
2018-06-18T00:11:58.672Z,101458.60
2018-06-18T00:14:27.141Z,101462.83
2018-06-18T00:16:55.316Z,101468.27
2018-06-18T00:19:23.452Z,101467.23
2018-06-18T00:21:51.945Z,101476.86
2018-06-18T00:24:20.103Z,101475.87
2018-06-18T00:26:48.799Z,101480.31
2018-06-18T00:29:16.941Z,101481.16
2018-06-18T00:31:45.141Z,101482.37
2018-06-18T00:34:13.310Z,101477.59
2018-06-18T00:36:41.693Z,101484.87
2018-06-18T00:39:10.085Z,101494.53
2018-06-18T00:41:38.532Z,101491.44
2018-06-18T00:44:07.184Z,101493.43
2018-06-18T00:46:35.333Z,101494.56
2018-06-18T00:49:03.668Z,101487.92
2018-06-18T00:51:31.809Z,101481.02
2018-06-18T00:53:59.961Z,101482.52
2018-06-18T00:56:28.120Z,101480.94
2018-06-18T00:58:56.299Z,101478.70
2018-06-18T01:01:24.429Z,101480.20
2018-06-18T01:03:52.572Z,101476.39
2018-06-18T01:06:21.066Z,101479.77
2018-06-18T01:08:49.797Z,101484.98
2018-06-18T01:11:18.296Z,101491.77
2018-06-18T01:13:47.008Z,101483.88
2018-06-18T01:16:16.001Z,101479.21
2018-06-18T01:18:44.125Z,101471.91
2018-06-18T01:21:18.923Z,101462.91
2018-06-18T01:23:55.604Z,101462.32
2018-06-18T01:26:23.985Z,101465.30
2018-06-18T01:28:52.219Z,101463.09
2018-06-18T01:31:20.614Z,101456.30
2018-06-18T01:33:49.417Z,101454.57
2018-06-18T01:36:17.560Z,101450.13
2018-06-18T01:38:45.907Z,101439.88
2018-06-18T01:41:14.048Z,101441.24
2018-06-18T01:43:42.184Z,101445.94
2018-06-18T01:46:10.391Z,101453.76
2018-06-18T01:48:38.537Z,101456.95
2018-06-18T01:51:07.000Z,101454.23
2018-06-18T01:53:35.150Z,101454.64
2018-06-18T01:56:03.293Z,101454.02
2018-06-18T01:58:31.628Z,101448.73
2018-06-18T02:01:00.148Z,101453.28
2018-06-18T02:03:28.291Z,101446.48
2018-06-18T02:05:56.472Z,101453.79
2018-06-18T02:08:24.626Z,101453.79
2018-06-18T02:10:52.760Z,101448.22
2018-06-18T02:13:21.277Z,101452.52
2018-06-18T02:15:49.735Z,101453.87
2018-06-18T02:18:18.421Z,101452.91
2018-06-18T02:20:46.916Z,101451.55
2018-06-18T02:23:15.096Z,101446.01
2018-06-18T02:25:43.213Z,101439.84
2018-06-18T02:28:16.849Z,101432.14
2018-06-18T02:30:50.244Z,101437.57
2018-06-18T02:33:24.158Z,101441.20
2018-06-18T02:35:57.724Z,101444.14
2018-06-18T02:38:31.641Z,101446.23
2018-06-18T02:41:00.035Z,101451.52
2018-06-18T02:43:28.351Z,101456.47
2018-06-18T02:45:56.816Z,101461.62
2018-06-18T02:48:24.948Z,101455.20
2018-06-18T02:50:53.085Z,101458.91
2018-06-18T02:53:21.220Z,101467.56
2018-06-18T02:55:50.682Z,101466.83
2018-06-18T02:58:18.813Z,101465.25
2018-06-18T03:00:47.293Z,101457.20
2018-06-18T03:03:15.415Z,101452.06
2018-06-18T03:05:43.553Z,101444.83
2018-06-18T03:08:11.678Z,101450.59
2018-06-18T03:10:40.011Z,101455.09
2018-06-18T03:13:08.140Z,101449.55
2018-06-18T03:15:36.273Z,101449.95
2018-06-18T03:18:04.520Z,101450.56
2018-06-18T03:21:40.218Z,101447.85
2018-06-18T03:24:11.443Z,101450.34
2018-06-18T03:26:45.408Z,101451.47
2018-06-18T03:29:17.431Z,101445.53
2018-06-18T03:31:45.932Z,101451.11
2018-06-18T03:34:14.463Z,101449.38
2018-06-18T03:36:43.856Z,101445.59
2018-06-18T03:39:13.496Z,101448.30
2018-06-18T03:41:43.802Z,101455.55
2018-06-18T03:44:18.213Z,101456.52
2018-06-18T03:46:46.345Z,101462.31
2018-06-18T03:49:14.567Z,101459.22
2018-06-18T03:51:42.710Z,101461.57
2018-06-18T03:54:11.180Z,101457.75
2018-06-18T03:56:39.528Z,101456.66
2018-06-18T03:59:08.232Z,101465.13
2018-06-18T04:01:50.664Z,101460.81
2018-06-18T04:04:24.615Z,101456.48
2018-06-18T04:06:58.527Z,101457.55
2018-06-18T04:09:32.373Z,101459.17
2018-06-18T04:12:07.477Z,101460.75
2018-06-18T04:14:35.832Z,101459.00
2018-06-18T04:17:04.056Z,101462.78
2018-06-18T04:19:32.444Z,101465.76
2018-06-18T04:22:01.038Z,101468.59
2018-06-18T04:24:29.204Z,101468.05
2018-06-18T04:26:57.748Z,101463.09
2018-06-18T04:29:25.927Z,101462.80
2018-06-18T04:31:55.213Z,101459.86
2018-06-18T04:34:30.110Z,101467.78
2018-06-18T04:37:08.475Z,101464.70
2018-06-18T04:39:36.971Z,101466.06
2018-06-18T04:42:10.872Z,101464.19
2018-06-18T04:44:44.882Z,101455.70
2018-06-18T04:47:18.553Z,101448.52
2018-06-18T04:49:52.484Z,101444.37
2018-06-18T04:52:20.621Z,101449.77
2018-06-18T04:54:48.771Z,101461.19
2018-06-18T04:57:16.916Z,101458.57
2018-06-18T04:59:50.988Z,101452.77
2018-06-18T05:02:19.138Z,101451.19
2018-06-18T05:04:47.617Z,101450.31
2018-06-18T05:07:15.924Z,101454.34
2018-06-18T05:10:07.941Z,101452.44
2018-06-18T05:12:36.114Z,101453.64
2018-06-18T05:15:04.836Z,101460.81
2018-06-18T05:17:33.300Z,101463.63
2018-06-18T05:20:01.777Z,101463.70
2018-06-18T05:22:30.102Z,101467.25
2018-06-18T05:24:58.421Z,101474.13
2018-06-18T05:27:30.114Z,101475.22
2018-06-18T05:30:01.184Z,101481.02
2018-06-18T05:32:29.871Z,101477.31
2018-06-18T05:34:58.036Z,101475.44
2018-06-18T05:37:32.831Z,101478.01
2018-06-18T05:40:01.290Z,101470.16
2018-06-18T05:42:30.188Z,101464.53
2018-06-18T05:44:58.824Z,101463.33
2018-06-18T05:47:26.963Z,101460.95
2018-06-18T05:49:55.094Z,101458.39
2018-06-18T05:52:23.248Z,101460.81
2018-06-18T05:54:51.357Z,101470.94
2018-06-18T05:57:19.531Z,101469.38
2018-06-18T05:59:47.647Z,101465.56
2018-06-18T06:02:15.777Z,101459.12
2018-06-18T06:04:43.910Z,101462.38
2018-06-18T06:07:12.376Z,101458.55
2018-06-18T06:09:40.741Z,101459.12
2018-06-18T06:12:09.646Z,101462.95
2018-06-18T06:14:38.165Z,101467.19
2018-06-18T06:17:06.859Z,101473.78
2018-06-18T06:19:35.014Z,101478.86
2018-06-18T06:22:03.339Z,101479.80
2018-06-18T06:24:31.683Z,101487.75
2018-06-18T06:27:00.156Z,101491.25
2018-06-18T06:29:28.299Z,101489.91
2018-06-18T06:31:56.641Z,101487.81
2018-06-18T06:34:25.096Z,101489.75
2018-06-18T06:36:53.610Z,101487.91
2018-06-18T06:39:22.078Z,101495.33
2018-06-18T06:41:53.536Z,101493.19
2018-06-18T06:44:22.052Z,101493.98
2018-06-18T06:46:50.331Z,101488.55
2018-06-18T06:49:18.821Z,101487.49
2018-06-18T06:51:46.945Z,101498.32
2018-06-18T06:54:15.414Z,101494.14
2018-06-18T06:56:43.564Z,101493.72
2018-06-18T06:59:11.916Z,101495.33
2018-06-18T07:01:40.060Z,101492.81
2018-06-18T07:04:09.064Z,101490.61
2018-06-18T07:06:37.559Z,101490.39
2018-06-18T07:09:08.934Z,101490.75
2018-06-18T07:11:37.924Z,101502.73
2018-06-18T07:14:06.383Z,101500.64
2018-06-18T07:16:35.024Z,101499.20
2018-06-18T07:19:03.397Z,101513.17
2018-06-18T07:21:31.548Z,101508.94
2018-06-18T07:23:59.729Z,101514.48
2018-06-18T07:26:27.844Z,101507.66
2018-06-18T07:28:56.369Z,101515.18
2018-06-18T07:31:24.858Z,101502.85
2018-06-18T07:33:53.395Z,101509.25
2018-06-18T07:36:21.736Z,101502.33
2018-06-18T07:38:50.211Z,101492.27
2018-06-18T07:41:18.348Z,101494.41
2018-06-18T07:43:46.492Z,101493.60
2018-06-18T07:46:14.948Z,101495.77
2018-06-18T07:48:43.408Z,101496.44
2018-06-18T07:51:11.881Z,101510.30
2018-06-18T07:53:40.354Z,101497.47
2018-06-18T07:56:08.493Z,101498.63
2018-06-18T07:58:37.296Z,101507.09
2018-06-18T08:01:05.765Z,101512.69
2018-06-18T08:03:33.945Z,101500.16
2018-06-18T08:06:02.561Z,101506.17
2018-06-18T08:08:31.136Z,101499.61
2018-06-18T08:10:59.604Z,101507.58
2018-06-18T08:13:28.082Z,101494.52
2018-06-18T08:15:56.217Z,101495.20
2018-06-18T08:18:24.354Z,101501.30
2018-06-18T08:20:52.805Z,101492.03
2018-06-18T08:23:21.385Z,101494.00
2018-06-18T08:25:49.870Z,101493.27
2018-06-18T08:28:18.001Z,101498.27
2018-06-18T08:30:46.460Z,101483.11
2018-06-18T08:33:14.955Z,101484.83
2018-06-18T08:35:43.074Z,101491.56
2018-06-18T08:38:11.546Z,101489.75
2018-06-18T08:40:40.018Z,101487.72
2018-06-18T08:43:08.156Z,101481.45
2018-06-18T08:45:36.314Z,101482.58
2018-06-18T08:48:04.518Z,101484.37
2018-06-18T08:50:38.311Z,101472.92
2018-06-18T08:53:12.428Z,101474.81
2018-06-18T08:55:45.975Z,101475.08
2018-06-18T08:58:19.690Z,101476.34
2018-06-18T09:00:53.871Z,101478.84
2018-06-18T09:03:23.085Z,101479.95
2018-06-18T09:06:09.452Z,101480.86
2018-06-18T09:08:43.024Z,101484.86
2018-06-18T09:11:11.481Z,101480.84
2018-06-18T09:13:39.834Z,101478.18
2018-06-18T09:16:08.041Z,101480.67
2018-06-18T09:18:36.640Z,101473.67
2018-06-18T09:21:04.761Z,101485.47
2018-06-18T09:23:32.925Z,101475.15
2018-06-18T09:26:01.953Z,101473.73
2018-06-18T09:28:30.978Z,101478.78
2018-06-18T09:30:59.342Z,101471.92
2018-06-18T09:33:28.024Z,101481.91
2018-06-18T09:35:56.481Z,101476.88
2018-06-18T09:38:24.609Z,101484.95
2018-06-18T09:40:52.751Z,101483.72
2018-06-18T09:43:20.892Z,101485.35
2018-06-18T09:45:49.352Z,101483.23
2018-06-18T09:48:17.892Z,101484.47
2018-06-18T09:50:51.420Z,101486.59
2018-06-18T09:53:25.214Z,101479.53
2018-06-18T09:55:59.672Z,101481.11
2018-06-18T09:58:33.276Z,101483.53
2018-06-18T10:01:09.826Z,101485.92
2018-06-18T10:03:37.957Z,101486.55
2018-06-18T10:06:06.540Z,101480.45
2018-06-18T10:08:35.070Z,101489.89
2018-06-18T10:11:03.366Z,101480.66
2018-06-18T10:13:31.505Z,101490.80
2018-06-18T10:16:00.261Z,101501.41
2018-06-18T10:18:28.389Z,101484.66
2018-06-18T10:20:56.516Z,101494.27
2018-06-18T10:23:24.660Z,101493.26
2018-06-18T10:25:53.254Z,101484.16
2018-06-18T10:28:21.714Z,101484.52
2018-06-18T10:30:49.857Z,101484.69
2018-06-18T10:33:23.449Z,101478.89
2018-06-18T10:35:57.073Z,101485.41
2018-06-18T10:38:30.984Z,101480.45
2018-06-18T10:41:04.556Z,101495.52
2018-06-18T10:43:34.797Z,101490.22
2018-06-18T10:46:03.267Z,101485.27
2018-06-18T10:48:31.985Z,101489.05
2018-06-18T10:51:00.442Z,101486.00
2018-06-18T10:53:28.945Z,101480.28
2018-06-18T10:55:57.308Z,101482.33
2018-06-18T10:58:25.717Z,101486.95
2018-06-18T11:00:59.115Z,101484.63
2018-06-18T11:03:27.260Z,101482.23
2018-06-18T11:06:01.386Z,101483.95
2018-06-18T11:08:29.858Z,101480.92
2018-06-18T11:10:58.389Z,101481.42
2018-06-18T11:13:26.929Z,101483.95
2018-06-18T11:15:55.116Z,101487.56
2018-06-18T11:18:28.684Z,101481.76
2018-06-18T11:21:02.304Z,101475.59
2018-06-18T11:23:36.106Z,101474.95
2018-06-18T11:26:09.991Z,101475.98
2018-06-18T11:28:38.118Z,101471.86
2018-06-18T11:31:06.444Z,101477.33
2018-06-18T11:33:34.797Z,101469.47
2018-06-18T11:36:02.928Z,101469.11
2018-06-18T11:38:31.585Z,101466.73
2018-06-18T11:40:59.936Z,101464.14
2018-06-18T11:43:28.108Z,101467.73
2018-06-18T11:45:56.398Z,101459.17
2018-06-18T11:48:24.966Z,101454.70
2018-06-18T11:50:53.313Z,101460.05
2018-06-18T11:53:21.484Z,101454.04
2018-06-18T11:55:49.707Z,101452.69
2018-06-18T11:58:23.411Z,101460.20
2018-06-18T12:00:57.853Z,101457.98
2018-06-18T12:03:31.645Z,101462.59
2018-06-18T12:06:05.541Z,101466.37
2018-06-18T12:08:39.486Z,101447.33
2018-06-18T12:11:08.085Z,101453.97
2018-06-18T12:13:36.269Z,101455.48
2018-06-18T12:16:04.392Z,101447.73
2018-06-18T12:18:32.550Z,101452.09
2018-06-18T12:21:01.010Z,101448.67
2018-06-18T12:23:29.128Z,101443.73
2018-06-18T12:25:57.633Z,101446.84
2018-06-18T12:28:25.761Z,101454.56
2018-06-18T12:30:55.531Z,101454.19
2018-06-18T12:33:23.853Z,101446.49
2018-06-18T12:35:52.577Z,101441.67
2018-06-18T12:38:20.724Z,101442.70
2018-06-18T12:40:49.244Z,101446.13
2018-06-18T12:43:20.852Z,101433.22
2018-06-18T12:45:57.043Z,101437.09
2018-06-18T12:48:31.003Z,101440.19
2018-06-18T12:51:04.881Z,101436.78
2018-06-18T12:53:38.921Z,101436.09
2018-06-18T12:56:12.680Z,101433.02
2018-06-18T12:58:40.808Z,101437.81
2018-06-18T13:01:10.594Z,101440.69
2018-06-18T13:03:39.069Z,101439.00
2018-06-18T13:06:07.540Z,101440.56
2018-06-18T13:08:35.684Z,101440.91
2018-06-18T13:11:04.159Z,101439.34
2018-06-18T13:13:32.640Z,101438.47
2018-06-18T13:16:00.784Z,101436.41
2018-06-18T13:18:29.084Z,101434.88
2018-06-18T13:20:57.280Z,101433.01
2018-06-18T13:23:25.422Z,101440.74
2018-06-18T13:25:53.881Z,101432.72
2018-06-18T13:28:22.071Z,101431.18
2018-06-18T13:30:50.356Z,101432.55
2018-06-18T13:33:18.500Z,101432.38
2018-06-18T13:35:47.288Z,101437.84
2018-06-18T13:38:21.053Z,101430.27
2018-06-18T13:40:54.937Z,101430.92
2018-06-18T13:43:29.001Z,101430.89
2018-06-18T13:46:02.937Z,101435.61
2018-06-18T13:48:36.558Z,101429.05
2018-06-18T13:51:05.025Z,101436.27
2018-06-18T13:53:33.145Z,101433.36
2018-06-18T13:56:01.779Z,101423.70
2018-06-18T13:58:30.063Z,101428.02
2018-06-18T14:00:58.393Z,101434.25
2018-06-18T14:03:26.588Z,101435.84
2018-06-18T14:05:55.033Z,101431.23
2018-06-18T14:08:23.417Z,101436.38
2018-06-18T14:10:51.548Z,101428.33
2018-06-18T14:13:20.098Z,101432.80
2018-06-18T14:15:48.197Z,101438.78
2018-06-18T14:18:16.880Z,101431.77
2018-06-18T14:20:45.344Z,101434.70
2018-06-18T14:23:13.494Z,101435.91
2018-06-18T14:25:41.628Z,101429.77
2018-06-18T14:28:09.796Z,101424.30
2018-06-18T14:30:43.800Z,101427.57
2018-06-18T14:33:17.333Z,101429.28
2018-06-18T14:35:51.201Z,101433.03
2018-06-18T14:38:24.749Z,101436.97
2018-06-18T14:40:53.229Z,101432.14
2018-06-18T14:43:21.376Z,101429.92
2018-06-18T14:45:49.591Z,101424.24
2018-06-18T14:48:17.893Z,101426.46
2018-06-18T14:50:46.178Z,101430.20
2018-06-18T14:53:14.685Z,101422.64
2018-06-18T14:55:44.318Z,101426.95
2018-06-18T14:58:12.780Z,101430.39
2018-06-18T15:00:40.892Z,101431.11
2018-06-18T15:03:09.073Z,101435.41
2018-06-18T15:05:40.586Z,101418.28
2018-06-18T15:08:09.092Z,101417.44
2018-06-18T15:10:42.886Z,101425.83
2018-06-18T15:13:13.673Z,101427.23
2018-06-18T15:15:47.525Z,101438.23
2018-06-18T15:18:15.790Z,101436.86
2018-06-18T15:20:43.937Z,101436.53
2018-06-18T15:23:12.608Z,101463.97
2018-06-18T15:25:44.131Z,101455.39
2018-06-18T15:28:12.428Z,101455.19
2018-06-18T15:30:40.536Z,101463.38
2018-06-18T15:33:08.669Z,101473.08
2018-06-18T15:35:36.778Z,101457.30
2018-06-18T15:38:04.968Z,101455.76
2018-06-18T15:40:33.580Z,101446.69
2018-06-18T15:43:01.932Z,101446.87
2018-06-18T15:45:30.078Z,101439.23
2018-06-18T15:47:58.249Z,101435.48
2018-06-18T15:50:26.441Z,101437.20
2018-06-18T15:52:55.027Z,101432.94
2018-06-18T15:55:23.172Z,101434.15
2018-06-18T15:57:51.321Z,101430.03
2018-06-18T16:00:19.460Z,101427.28
2018-06-18T16:02:47.596Z,101423.87
2018-06-18T16:05:16.092Z,101417.88
2018-06-18T16:07:44.235Z,101416.50
2018-06-18T16:10:12.741Z,101420.93
2018-06-18T16:12:41.230Z,101418.04
2018-06-18T16:15:09.402Z,101418.73
2018-06-18T16:17:37.869Z,101420.09
2018-06-18T16:20:06.448Z,101420.93
2018-06-18T16:22:34.936Z,101416.32
2018-06-18T16:25:03.663Z,101422.84
2018-06-18T16:27:32.317Z,101426.27
2018-06-18T16:30:01.270Z,101413.25
2018-06-18T16:32:29.604Z,101415.98
2018-06-18T16:34:58.076Z,101421.12
2018-06-18T16:37:26.253Z,101425.92
2018-06-18T16:39:54.740Z,101418.54
2018-06-18T16:42:22.871Z,101418.54
2018-06-18T16:44:51.217Z,101427.97
2018-06-18T16:47:19.354Z,101419.05
2018-06-18T16:49:47.501Z,101418.38
2018-06-18T16:52:15.978Z,101414.08
2018-06-18T16:54:44.480Z,101416.82
2018-06-18T16:57:13.135Z,101422.66
2018-06-18T16:59:41.785Z,101414.45
2018-06-18T17:02:09.937Z,101425.24
2018-06-18T17:04:38.419Z,101426.41
2018-06-18T17:07:06.617Z,101419.20
2018-06-18T17:09:35.082Z,101425.38
2018-06-18T17:12:03.724Z,101422.91
2018-06-18T17:14:31.844Z,101428.02
2018-06-18T17:17:00.191Z,101428.84
2018-06-18T17:19:28.320Z,101435.69
2018-06-18T17:21:56.757Z,101434.84
2018-06-18T17:24:24.895Z,101437.43
2018-06-18T17:26:53.042Z,101433.67
2018-06-18T17:29:21.523Z,101427.49
2018-06-18T17:31:49.726Z,101431.62
2018-06-18T17:34:18.044Z,101433.17
2018-06-18T17:36:46.597Z,101429.73
2018-06-18T17:39:14.765Z,101423.73
2018-06-18T17:41:42.933Z,101423.41
2018-06-18T17:44:11.292Z,101419.66
2018-06-18T17:46:39.626Z,101432.47
2018-06-18T17:49:08.021Z,101423.59
2018-06-18T17:51:36.517Z,101424.77
2018-06-18T17:54:05.010Z,101432.30
2018-06-18T17:56:33.793Z,101431.95
2018-06-18T17:59:01.957Z,101433.50
2018-06-18T18:01:30.441Z,101429.88
2018-06-18T18:03:59.118Z,101427.00
2018-06-18T18:06:27.289Z,101421.16
2018-06-18T18:08:55.812Z,101433.66
2018-06-18T18:11:23.951Z,101431.65
2018-06-18T18:13:52.436Z,101422.93
2018-06-18T18:16:20.764Z,101423.83
2018-06-18T18:18:49.226Z,101423.84
2018-06-18T18:21:17.388Z,101425.90
2018-06-18T18:23:45.535Z,101426.77
2018-06-18T18:26:13.942Z,101433.11
2018-06-18T18:28:42.306Z,101428.30
2018-06-18T18:31:10.659Z,101433.77
2018-06-18T18:33:40.683Z,101445.01
2018-06-18T18:36:09.062Z,101452.72
2018-06-18T18:38:37.246Z,101442.43
2018-06-18T18:41:05.429Z,101437.48
2018-06-18T18:43:33.564Z,101439.16
2018-06-18T18:46:02.232Z,101450.31
2018-06-18T18:48:30.789Z,101443.53
2018-06-18T18:50:58.925Z,101437.31
2018-06-18T18:53:27.267Z,101441.08
2018-06-18T18:56:07.899Z,101438.99
2018-06-18T18:59:42.912Z,101452.84
2018-06-18T19:02:11.429Z,101443.08
2018-06-18T19:04:44.964Z,101437.40
2018-06-18T19:07:13.466Z,101436.87
2018-06-18T19:09:47.069Z,101437.75
2018-06-18T19:12:15.383Z,101433.47
2018-06-18T19:14:43.526Z,101434.14
2018-06-18T19:17:11.644Z,101430.53
2018-06-18T19:19:48.116Z,101426.60
2018-06-18T19:22:16.586Z,101430.81
2018-06-18T19:24:45.047Z,101433.52
2018-06-18T19:27:13.443Z,101441.38
2018-06-18T19:29:41.611Z,101442.05
2018-06-18T19:32:10.068Z,101442.39
2018-06-18T19:34:38.259Z,101438.43
2018-06-18T19:37:06.934Z,101437.69
2018-06-18T19:39:38.176Z,101435.09
2018-06-18T19:42:07.520Z,101438.31
2018-06-18T19:44:35.890Z,101439.15
2018-06-18T19:47:17.345Z,101446.13
2018-06-18T19:49:45.605Z,101448.86
2018-06-18T19:52:13.913Z,101450.36
2018-06-18T19:54:47.309Z,101449.87
2018-06-18T19:57:15.931Z,101451.41
2018-06-18T19:59:44.359Z,101454.46
2018-06-18T20:02:13.489Z,101455.83
2018-06-18T20:04:41.985Z,101464.56
2018-06-18T20:07:10.351Z,101453.93
2018-06-18T20:09:38.848Z,101456.34
2018-06-18T20:12:07.735Z,101462.31
2018-06-18T20:14:36.449Z,101468.30
2018-06-18T20:17:04.638Z,101468.13
2018-06-18T20:19:32.760Z,101478.23
2018-06-18T20:22:01.085Z,101479.91
2018-06-18T20:24:29.338Z,101481.58
2018-06-18T20:26:57.489Z,101484.17
2018-06-18T20:29:25.651Z,101483.12
2018-06-18T20:31:53.843Z,101481.58
2018-06-18T20:34:22.199Z,101478.30
2018-06-18T20:36:50.376Z,101475.16
2018-06-18T20:39:19.035Z,101488.23
2018-06-18T20:41:47.353Z,101476.73
2018-06-18T20:44:20.074Z,101482.50
2018-06-18T20:46:48.229Z,101491.23
2018-06-18T20:49:16.585Z,101490.82
2018-06-18T20:51:45.636Z,101489.73
2018-06-18T20:54:14.093Z,101493.91
2018-06-18T20:56:42.249Z,101489.62
2018-06-18T20:59:12.739Z,101492.52
2018-06-18T21:01:40.890Z,101504.05
2018-06-18T21:04:09.399Z,101510.66
2018-06-18T21:06:37.879Z,101505.12
2018-06-18T21:09:08.299Z,101510.69
2018-06-18T21:11:36.514Z,101513.41
2018-06-18T21:14:04.784Z,101518.36
2018-06-18T21:16:32.927Z,101511.98
2018-06-18T21:19:01.568Z,101507.57
2018-06-18T21:21:29.901Z,101511.50
2018-06-18T21:23:58.372Z,101511.75
2018-06-18T21:26:26.698Z,101513.31
2018-06-18T21:28:55.367Z,101515.88
2018-06-18T21:31:23.860Z,101512.41
2018-06-18T21:33:52.019Z,101508.25
2018-06-18T21:36:20.135Z,101512.52
2018-06-18T21:38:48.640Z,101510.95
2018-06-18T21:41:16.779Z,101521.13
2018-06-18T21:43:44.995Z,101523.24
2018-06-18T21:46:13.160Z,101523.31
2018-06-18T21:48:41.308Z,101524.90
2018-06-18T21:51:09.532Z,101513.98
2018-06-18T21:53:38.008Z,101520.31
2018-06-18T21:59:19.656Z,101516.16
2018-06-18T22:01:48.138Z,101517.97
2018-06-18T22:04:16.634Z,101514.75
2018-06-18T22:06:45.101Z,101516.61
2018-06-18T22:09:16.298Z,101519.56
2018-06-18T22:11:46.868Z,101521.94
2018-06-18T22:14:15.010Z,101510.82
2018-06-18T22:16:43.127Z,101511.02
2018-06-18T22:19:11.495Z,101514.11
2018-06-18T22:21:39.662Z,101520.77
2018-06-18T22:24:08.189Z,101517.52
2018-06-18T22:26:36.609Z,101519.01
2018-06-18T22:29:08.005Z,101518.94
2018-06-18T22:31:36.782Z,101515.49
2018-06-18T22:34:05.257Z,101516.17
2018-06-18T22:36:33.395Z,101523.73
2018-06-18T22:39:02.303Z,101523.50
2018-06-18T22:41:30.783Z,101524.59
2018-06-18T22:43:59.509Z,101521.66
2018-06-18T22:46:27.640Z,101523.27
2018-06-18T22:48:55.769Z,101525.44
2018-06-18T22:51:24.233Z,101524.27
2018-06-18T22:53:52.656Z,101517.30
2018-06-18T22:56:21.302Z,101521.91
2018-06-18T22:58:50.025Z,101523.91
2018-06-18T23:01:18.941Z,101522.51
2018-06-18T23:03:47.094Z,101523.08
2018-06-18T23:06:15.225Z,101527.33
2018-06-18T23:08:43.382Z,101525.40
2018-06-18T23:11:11.757Z,101526.48
2018-06-18T23:13:40.025Z,101521.27
2018-06-18T23:16:09.042Z,101532.33
2018-06-18T23:18:37.174Z,101519.85
2018-06-18T23:21:05.649Z,101533.97
2018-06-18T23:23:34.310Z,101527.31
2018-06-18T23:26:02.698Z,101530.16
2018-06-18T23:28:40.309Z,101526.59
2018-06-18T23:31:08.773Z,101523.14
2018-06-18T23:33:36.897Z,101524.66
2018-06-18T23:36:05.493Z,101526.30
2018-06-18T23:38:33.782Z,101528.82
2018-06-18T23:41:02.549Z,101527.41
2018-06-18T23:43:30.767Z,101527.69
2018-06-18T23:45:59.133Z,101528.12
2018-06-18T23:48:27.586Z,101520.50
2018-06-18T23:50:55.738Z,101523.29
2018-06-18T23:53:24.060Z,101516.91
2018-06-18T23:55:52.529Z,101513.45
2018-06-18T23:58:20.653Z,101511.73
